Terminal Aerodrome Forecast
Issued by NWS

Home | Current Version | Previous Version | Text Only | Print | Product List | Glossary On
Versions: 1 2 3 4 5 6 7 8 9 10 11 12 13
000
FTUS44 KTSA 312300
TAFRVS
TAF
KRVS 312340Z 0100/0124 16005KT P6SM -RA OVC040
     FM010300 17008KT 4SM -RA BR OVC025
     FM010600 18009KT 4SM -RA BR OVC008
      TEMPO 0106/0110 2SM -RA BR OVC005
     FM011400 27011G18KT P6SM OVC015 PROB30 0114/0118 6SM -RA OVC012
     FM011800 32015KT P6SM OVC035
     FM012200 33017G25KT P6SM BKN050=

USA.gov is the U.S. government's official web portal to all federal, state and local government web resources and services.